createdAt,value
2023-03-22T00:00:15.498Z,5.96
2023-03-22T00:02:43.241Z,5.95
2023-03-22T00:05:11.001Z,5.80
2023-03-22T00:07:58.977Z,5.87
2023-03-22T00:10:29.003Z,5.93
2023-03-22T00:12:57.225Z,5.81
2023-03-22T00:15:24.656Z,5.74
2023-03-22T00:17:53.079Z,5.86
2023-03-22T00:20:23.721Z,5.80
2023-03-22T00:22:51.097Z,5.85
2023-03-22T00:25:21.294Z,5.83
2023-03-22T00:27:48.922Z,5.88
2023-03-22T00:30:16.562Z,5.83
2023-03-22T00:32:45.075Z,5.70
2023-03-22T00:35:12.984Z,5.65
2023-03-22T00:37:40.370Z,5.58
2023-03-22T00:40:11.250Z,5.64
2023-03-22T00:42:40.371Z,5.54
2023-03-22T00:45:11.320Z,5.55
2023-03-22T00:47:39.311Z,5.64
2023-03-22T00:50:07.853Z,5.65
2023-03-22T00:52:35.509Z,5.60
2023-03-22T00:55:03.290Z,5.61
2023-03-22T00:57:31.021Z,5.89
2023-03-22T00:59:58.535Z,5.68
2023-03-22T01:02:29.749Z,5.82
2023-03-22T01:04:57.926Z,5.65
2023-03-22T01:07:28.219Z,5.61
2023-03-22T01:09:55.615Z,5.60
2023-03-22T01:12:23.239Z,5.64
2023-03-22T01:14:50.808Z,5.64
2023-03-22T01:17:19.841Z,5.55
2023-03-22T01:19:47.260Z,5.56
2023-03-22T01:22:14.762Z,5.62
2023-03-22T01:24:44.240Z,5.56
2023-03-22T01:27:11.996Z,5.56
2023-03-22T01:29:39.342Z,5.53
2023-03-22T01:32:06.906Z,5.49
2023-03-22T01:34:34.602Z,5.45
2023-03-22T01:37:02.063Z,5.44
2023-03-22T01:39:29.732Z,5.57
2023-03-22T01:41:57.184Z,5.60
2023-03-22T01:44:24.587Z,5.69
2023-03-22T01:46:52.186Z,5.55
2023-03-22T01:49:34.146Z,5.56
2023-03-22T01:52:06.437Z,5.52
2023-03-22T01:54:50.288Z,5.61
2023-03-22T01:57:18.565Z,5.72
2023-03-22T01:59:47.539Z,5.58
2023-03-22T02:02:22.167Z,5.76
2023-03-22T02:04:58.234Z,5.60
2023-03-22T02:07:28.642Z,5.56
2023-03-22T02:10:23.396Z,5.54
2023-03-22T02:13:14.045Z,5.60
2023-03-22T02:16:14.573Z,5.64
2023-03-22T02:18:57.599Z,5.55
2023-03-22T02:22:02.398Z,5.47
2023-03-22T02:25:05.415Z,5.46
2023-03-22T02:27:41.706Z,5.47
2023-03-22T02:30:33.857Z,5.36
2023-03-22T02:33:35.945Z,5.36
2023-03-22T02:36:19.951Z,5.44
2023-03-22T02:38:59.635Z,5.35
2023-03-22T02:41:33.173Z,5.44
2023-03-22T02:44:17.688Z,5.34
2023-03-22T02:46:52.821Z,5.33
2023-03-22T02:49:36.414Z,5.31
2023-03-22T02:52:17.697Z,5.29
2023-03-22T02:55:09.878Z,5.29
2023-03-22T02:57:54.518Z,5.29
2023-03-22T03:00:22.493Z,5.45
2023-03-22T03:02:55.147Z,5.29
2023-03-22T03:05:26.229Z,5.38
2023-03-22T03:07:59.726Z,5.21
2023-03-22T03:10:33.418Z,5.29
2023-03-22T03:13:01.248Z,5.22
2023-03-22T03:15:28.956Z,5.18
2023-03-22T03:18:19.206Z,5.14
2023-03-22T03:21:05.078Z,5.08
2023-03-22T03:23:54.973Z,5.00
2023-03-22T03:26:52.815Z,5.00
2023-03-22T03:29:24.163Z,5.00
2023-03-22T03:32:15.958Z,4.99
2023-03-22T03:34:49.764Z,5.04
2023-03-22T03:37:22.897Z,5.03
2023-03-22T03:39:59.007Z,5.08
2023-03-22T03:42:28.591Z,5.07
2023-03-22T03:44:56.643Z,5.16
2023-03-22T03:47:26.082Z,5.21
2023-03-22T03:49:53.904Z,5.11
2023-03-22T03:52:24.636Z,5.06
2023-03-22T03:54:52.774Z,5.15
2023-03-22T03:57:22.309Z,5.09
2023-03-22T03:59:50.278Z,5.07
2023-03-22T04:02:17.721Z,5.04
2023-03-22T04:04:45.401Z,5.01
2023-03-22T04:07:12.911Z,5.03
2023-03-22T04:09:40.627Z,5.10
2023-03-22T04:12:12.864Z,5.22
2023-03-22T04:14:41.839Z,5.30
2023-03-22T04:17:09.906Z,5.25
2023-03-22T04:19:38.005Z,5.32
2023-03-22T04:22:05.957Z,5.34
2023-03-22T04:24:33.532Z,5.39
2023-03-22T04:27:01.066Z,5.43
2023-03-22T04:29:32.382Z,5.60
2023-03-22T04:32:00.997Z,5.64
2023-03-22T04:34:28.742Z,5.50
2023-03-22T04:36:56.288Z,5.50
2023-03-22T04:39:23.840Z,5.63
2023-03-22T04:41:51.245Z,5.81
2023-03-22T04:44:20.450Z,5.80
2023-03-22T04:46:47.956Z,5.78
2023-03-22T04:49:15.974Z,5.68
2023-03-22T04:51:43.313Z,5.62
2023-03-22T04:54:10.727Z,5.60
2023-03-22T04:56:38.061Z,5.56
2023-03-22T04:59:05.499Z,5.58
2023-03-22T05:01:40.814Z,5.57
2023-03-22T05:04:08.916Z,5.64
2023-03-22T05:06:36.457Z,5.90
2023-03-22T05:09:08.187Z,5.88
2023-03-22T05:11:37.144Z,5.94
2023-03-22T05:14:04.877Z,5.86
2023-03-22T05:16:33.528Z,5.91
2023-03-22T05:19:02.503Z,5.95
2023-03-22T05:21:36.728Z,5.94
2023-03-22T05:24:04.393Z,5.95
2023-03-22T05:26:31.853Z,6.02
2023-03-22T05:28:59.574Z,5.97
2023-03-22T05:31:28.833Z,6.10
2023-03-22T05:34:04.146Z,6.16
2023-03-22T05:36:36.626Z,6.31
2023-03-22T05:39:04.680Z,6.41
2023-03-22T05:41:36.379Z,6.79
2023-03-22T05:44:05.158Z,6.99
2023-03-22T05:46:36.581Z,7.15
2023-03-22T05:49:03.988Z,7.13
2023-03-22T05:51:32.247Z,7.38
2023-03-22T05:54:00.488Z,7.60
2023-03-22T05:56:27.907Z,7.79
2023-03-22T05:58:58.268Z,7.97
2023-03-22T06:01:25.891Z,8.07
2023-03-22T06:03:53.340Z,8.12
2023-03-22T06:06:20.715Z,8.23
2023-03-22T06:08:48.711Z,8.36
2023-03-22T06:11:22.896Z,8.40
2023-03-22T06:13:50.490Z,8.57
2023-03-22T06:16:17.976Z,8.61
2023-03-22T06:18:46.844Z,8.62
2023-03-22T06:21:14.452Z,8.89
2023-03-22T06:23:43.701Z,8.84
2023-03-22T06:26:11.623Z,9.09
2023-03-22T06:28:39.188Z,9.26
2023-03-22T06:31:08.296Z,9.10
2023-03-22T06:33:37.736Z,9.15
2023-03-22T06:36:05.556Z,9.24
2023-03-22T06:38:33.081Z,9.43
2023-03-22T06:41:00.497Z,9.63
2023-03-22T06:43:27.918Z,9.85
2023-03-22T06:45:57.388Z,10.04
2023-03-22T06:48:24.933Z,10.18
2023-03-22T06:50:52.305Z,10.29
2023-03-22T06:53:20.905Z,10.55
2023-03-22T06:55:48.309Z,10.63
2023-03-22T06:58:15.693Z,10.89
2023-03-22T07:00:43.365Z,10.73
2023-03-22T07:03:10.796Z,10.61
2023-03-22T07:05:39.831Z,10.52
2023-03-22T07:08:07.482Z,10.83
2023-03-22T07:10:38.516Z,10.79
2023-03-22T07:13:07.023Z,10.90
2023-03-22T07:15:35.177Z,10.90
2023-03-22T07:18:08.636Z,11.34
2023-03-22T07:20:41.639Z,11.52
2023-03-22T07:23:10.945Z,11.37
2023-03-22T07:25:38.440Z,11.38
2023-03-22T07:28:07.161Z,11.26
2023-03-22T07:30:37.593Z,11.50
2023-03-22T07:33:10.664Z,11.81
2023-03-22T07:35:38.617Z,12.18
2023-03-22T07:38:06.671Z,12.50
2023-03-22T07:40:34.607Z,12.43
2023-03-22T07:43:02.147Z,12.56
2023-03-22T07:45:29.664Z,12.93
2023-03-22T07:48:17.761Z,13.29
2023-03-22T07:50:45.484Z,13.54
2023-03-22T07:53:13.372Z,13.68
2023-03-22T07:55:42.473Z,13.58
2023-03-22T07:58:10.659Z,13.84
2023-03-22T08:00:38.630Z,13.81
2023-03-22T08:03:07.133Z,14.24
2023-03-22T08:05:35.508Z,14.38
2023-03-22T08:08:03.154Z,14.72
2023-03-22T08:10:32.964Z,14.98
2023-03-22T08:13:01.376Z,15.09
2023-03-22T08:15:28.779Z,15.04
2023-03-22T08:18:00.743Z,15.30
2023-03-22T08:20:28.173Z,15.36
2023-03-22T08:23:01.281Z,15.60
2023-03-22T08:25:29.735Z,15.59
2023-03-22T08:27:57.678Z,15.32
2023-03-22T08:30:26.132Z,15.45
2023-03-22T08:32:53.615Z,16.08
2023-03-22T08:35:22.239Z,16.28
2023-03-22T08:37:53.785Z,16.44
2023-03-22T08:40:23.126Z,16.38
2023-03-22T08:42:51.091Z,16.21
2023-03-22T08:45:18.715Z,16.14
2023-03-22T08:47:46.290Z,16.41
2023-03-22T08:50:13.858Z,16.40
2023-03-22T08:52:42.799Z,16.22
2023-03-22T08:55:10.571Z,16.84
2023-03-22T08:57:50.362Z,17.43
2023-03-22T09:00:19.212Z,17.26
2023-03-22T09:02:47.985Z,17.28
2023-03-22T09:05:15.621Z,17.46
2023-03-22T09:07:47.040Z,17.83
2023-03-22T09:10:15.216Z,17.38
2023-03-22T09:12:43.088Z,17.73
2023-03-22T09:15:41.893Z,18.09
2023-03-22T09:18:10.147Z,17.94
2023-03-22T09:20:38.433Z,18.58
2023-03-22T09:23:06.664Z,18.53
2023-03-22T09:25:34.333Z,18.55
2023-03-22T09:28:02.449Z,18.74
2023-03-22T09:30:32.378Z,18.90
2023-03-22T09:33:02.010Z,18.40
2023-03-22T09:35:30.087Z,18.49
2023-03-22T09:37:59.965Z,18.39
2023-03-22T09:40:30.896Z,18.91
2023-03-22T09:43:03.043Z,19.22
2023-03-22T09:45:39.822Z,19.32
2023-03-22T09:48:17.265Z,19.43
2023-03-22T09:50:48.370Z,19.55
2023-03-22T09:53:17.967Z,19.18
2023-03-22T09:56:17.486Z,19.70
2023-03-22T09:59:06.316Z,19.83
2023-03-22T10:01:48.351Z,18.64
2023-03-22T10:04:21.599Z,19.43
2023-03-22T10:06:59.943Z,18.85
2023-03-22T10:09:42.380Z,19.40
2023-03-22T10:12:32.304Z,19.83
2023-03-22T10:15:26.837Z,19.04
2023-03-22T10:17:57.570Z,18.79
2023-03-22T10:20:32.191Z,19.26
2023-03-22T10:23:03.278Z,18.97
2023-03-22T10:25:38.435Z,19.06
2023-03-22T10:28:21.214Z,18.70
2023-03-22T10:30:54.979Z,18.87
2023-03-22T10:33:50.260Z,18.96
2023-03-22T10:36:24.421Z,19.39
2023-03-22T10:39:00.712Z,19.65
2023-03-22T10:41:33.716Z,19.55
2023-03-22T10:44:02.859Z,19.74
2023-03-22T10:46:40.734Z,19.11
2023-03-22T10:49:17.597Z,19.46
2023-03-22T10:51:59.984Z,19.74
2023-03-22T10:54:28.074Z,19.28
2023-03-22T10:56:56.536Z,19.04
2023-03-22T10:59:52.734Z,19.02
2023-03-22T11:02:24.961Z,19.29
2023-03-22T11:04:57.070Z,19.26
2023-03-22T11:07:28.215Z,19.23
2023-03-22T11:10:24.036Z,19.41
2023-03-22T11:13:14.546Z,19.52
2023-03-22T11:15:52.881Z,19.56
2023-03-22T11:18:20.794Z,20.16
2023-03-22T11:21:07.448Z,19.89
2023-03-22T11:23:39.048Z,19.30
2023-03-22T11:26:10.377Z,19.53
2023-03-22T11:28:43.116Z,19.38
2023-03-22T11:31:21.304Z,19.75
2023-03-22T11:34:01.894Z,19.91
2023-03-22T11:36:30.410Z,19.88
2023-03-22T11:39:07.997Z,19.93
2023-03-22T11:41:37.845Z,19.96
2023-03-22T11:44:10.857Z,20.03
2023-03-22T11:46:48.751Z,20.03
2023-03-22T11:49:18.097Z,19.98
2023-03-22T11:51:53.186Z,19.74
2023-03-22T11:54:31.254Z,20.84
2023-03-22T11:57:03.964Z,20.18
2023-03-22T11:59:59.798Z,20.17
2023-03-22T12:02:32.609Z,20.48
2023-03-22T12:05:12.749Z,20.43
2023-03-22T12:07:41.774Z,20.26
2023-03-22T12:10:25.170Z,19.42
2023-03-22T12:12:59.997Z,19.77
2023-03-22T12:15:40.498Z,19.96
2023-03-22T12:18:48.944Z,19.89
2023-03-22T12:21:16.814Z,19.59
2023-03-22T12:23:44.849Z,20.47
2023-03-22T12:26:12.118Z,20.50
2023-03-22T12:29:06.171Z,21.19
2023-03-22T12:31:39.469Z,20.78
2023-03-22T12:34:14.806Z,20.38
2023-03-22T12:36:50.068Z,20.53
2023-03-22T12:39:30.492Z,20.62
2023-03-22T12:42:04.001Z,20.99
2023-03-22T12:44:40.431Z,21.53
2023-03-22T12:47:19.134Z,21.69
2023-03-22T12:49:54.175Z,21.64
2023-03-22T12:52:45.454Z,21.72
2023-03-22T12:55:34.966Z,21.66
2023-03-22T12:58:06.639Z,21.68
2023-03-22T13:00:40.807Z,22.52
2023-03-22T13:03:25.198Z,22.83
2023-03-22T13:06:05.142Z,23.20
2023-03-22T13:09:02.537Z,23.07
2023-03-22T13:11:32.117Z,22.77
2023-03-22T13:14:00.274Z,22.96
2023-03-22T13:17:06.831Z,22.42
2023-03-22T13:19:38.610Z,21.16
2023-03-22T13:22:22.238Z,21.41
2023-03-22T13:25:06.281Z,21.36
2023-03-22T13:27:37.978Z,21.41
2023-03-22T13:30:21.823Z,20.76
2023-03-22T13:33:09.951Z,20.16
2023-03-22T13:35:54.393Z,21.22
2023-03-22T13:38:22.432Z,20.90
2023-03-22T13:41:44.913Z,20.82
2023-03-22T13:44:27.022Z,21.15
2023-03-22T13:47:02.462Z,20.65
2023-03-22T13:49:53.410Z,20.13
2023-03-22T13:52:27.433Z,20.20
2023-03-22T13:54:57.677Z,20.53
2023-03-22T13:57:49.343Z,20.28
2023-03-22T14:00:36.416Z,19.82
2023-03-22T14:03:23.739Z,20.11
2023-03-22T14:06:10.939Z,20.47
2023-03-22T14:08:45.987Z,19.92
2023-03-22T14:11:20.802Z,20.25
2023-03-22T14:13:53.775Z,20.33
2023-03-22T14:16:46.034Z,20.20
2023-03-22T14:19:21.954Z,20.08
